Time;durP1;ratioP1;P1;durP2;ratioP2;P2;SDS_P1;SDS_P2;PMS_P1;PMS_P2;Temp;Humidity;BMP_temperature;BMP_pressure;BME280_temperature;BME280_humidity;BME280_pressure;Samples;Min_cycle;Max_cycle;Signal;HPM_P1;HPM_P2
2022/10/16 00:01:10;;;;;;;6.57;3.95;;;15.40;99.90;;;;;;4991054;28;20033;-76
2022/10/16 00:03:37;;;;;;;6.50;3.42;;;15.40;99.90;;;;;;4992775;28;20073;-75
2022/10/16 00:06:04;;;;;;;6.30;3.97;;;15.40;99.90;;;;;;4990489;28;20042;-76
2022/10/16 00:08:31;;;;;;;7.78;3.90;;;15.40;99.90;;;;;;4991868;28;20038;-75
2022/10/16 00:11:09;;;;;;;6.35;3.85;;;15.40;99.90;;;;;;4989729;28;20045;-76
2022/10/16 00:13:37;;;;;;;6.82;3.92;;;15.40;99.90;;;;;;4992546;28;20397;-76
2022/10/16 00:16:04;;;;;;;6.05;3.95;;;15.40;99.90;;;;;;4992869;28;20026;-78
2022/10/16 00:18:31;;;;;;;6.47;4.00;;;15.40;99.90;;;;;;4991936;28;20034;-76
2022/10/16 00:21:10;;;;;;;12.23;4.47;;;15.40;99.90;;;;;;4989571;28;20483;-78
2022/10/16 00:23:36;;;;;;;9.68;3.88;;;15.40;99.90;;;;;;4991208;28;20039;-77
2022/10/16 00:26:06;;;;;;;6.57;4.15;;;15.30;99.90;;;;;;4991337;28;20042;-77
2022/10/16 00:28:32;;;;;;;6.32;3.60;;;15.30;99.90;;;;;;4990025;28;20050;-75
2022/10/16 00:30:59;;;;;;;5.78;3.30;;;15.30;99.90;;;;;;4985550;28;20046;-76
2022/10/16 00:33:25;;;;;;;7.22;3.50;;;15.30;99.90;;;;;;4985703;28;20030;-76
2022/10/16 00:35:51;;;;;;;8.45;3.55;;;15.20;99.90;;;;;;4990284;28;20037;-77
2022/10/16 00:38:17;;;;;;;8.40;4.00;;;15.20;99.90;;;;;;4992107;28;20035;-74
2022/10/16 00:40:43;;;;;;;5.78;3.70;;;15.20;99.90;;;;;;4992214;28;20041;-75
2022/10/16 00:43:32;;;;;;;11.40;4.15;;;15.20;99.90;;;;;;4992230;28;20026;-76
2022/10/16 00:46:00;;;;;;;8.60;5.03;;;15.20;99.90;;;;;;4991317;28;20042;-77
2022/10/16 00:48:26;;;;;;;6.50;3.92;;;15.20;99.90;;;;;;4992470;28;20077;-76
2022/10/16 00:50:53;;;;;;;6.47;3.88;;;15.20;99.90;;;;;;4991022;28;20046;-77
2022/10/16 00:53:19;;;;;;;7.75;4.35;;;15.20;99.90;;;;;;4990409;28;20038;-76
2022/10/16 00:55:46;;;;;;;6.57;3.80;;;15.20;99.90;;;;;;4991834;28;20035;-76
2022/10/16 00:58:12;;;;;;;6.00;3.65;;;15.20;99.90;;;;;;4993781;28;20026;-76
2022/10/16 01:00:38;;;;;;;10.10;5.03;;;15.20;99.90;;;;;;4995869;28;20041;-77
2022/10/16 01:03:31;;;;;;;12.10;4.47;;;15.20;99.90;;;;;;4994502;28;20050;-76
2022/10/16 01:06:23;;;;;;;9.77;3.47;;;15.20;99.90;;;;;;4995018;28;20046;-76
2022/10/16 01:09:10;;;;;;;8.65;4.40;;;15.20;99.90;;;;;;4995311;28;20030;-79
2022/10/16 01:11:44;;;;;;;7.72;4.35;;;15.20;99.90;;;;;;4981260;28;20050;-76
2022/10/16 01:14:19;;;;;;;8.90;4.15;;;15.20;99.90;;;;;;4987611;28;20038;-74
2022/10/16 01:16:57;;;;;;;9.38;4.22;;;15.20;99.90;;;;;;4995784;28;20038;-75
2022/10/16 01:20:03;;;;;;;6.82;4.20;;;15.30;99.90;;;;;;4996844;28;20034;-77
2022/10/16 01:22:55;;;;;;;7.13;4.00;;;15.30;99.90;;;;;;4982257;28;20042;-77
2022/10/16 01:25:37;;;;;;;10.25;4.57;;;15.20;99.90;;;;;;5013120;28;20026;-76
2022/10/16 01:28:08;;;;;;;8.52;4.30;;;15.20;99.90;;;;;;5018433;28;20042;-76
2022/10/16 01:30:35;;;;;;;;;;;15.20;99.90;;;;;;4999543;28;20038;-76
2022/10/16 01:33:10;;;;;;;10.48;4.88;;;15.30;99.90;;;;;;4990674;28;20378;-76
2022/10/16 01:35:40;;;;;;;9.32;5.15;;;15.20;99.90;;;;;;4990578;28;20384;-76
2022/10/16 01:38:16;;;;;;;8.73;5.28;;;15.20;99.90;;;;;;4983500;28;20045;-76
2022/10/16 01:40:46;;;;;;;7.75;5.05;;;15.20;99.90;;;;;;4994946;28;20038;-74
2022/10/16 01:43:18;;;;;;;7.72;4.45;;;15.20;99.90;;;;;;4993956;28;20031;-76
2022/10/16 01:45:45;;;;;;;9.50;5.35;;;15.20;99.90;;;;;;4995246;28;20026;-75
2022/10/16 01:48:18;;;;;;;11.52;5.05;;;15.20;99.90;;;;;;4992318;28;20026;-77
2022/10/16 01:50:55;;;;;;;8.25;4.68;;;15.20;99.90;;;;;;4993493;28;20058;-77
2022/10/16 01:53:23;;;;;;;10.77;5.57;;;15.20;99.90;;;;;;4995113;28;20060;-76
2022/10/16 01:55:55;;;;;;;10.82;5.10;;;15.20;99.90;;;;;;4994500;28;20041;-74
2022/10/16 01:58:23;;;;;;;11.30;5.63;;;15.20;99.90;;;;;;4994186;28;20045;-76
2022/10/16 02:00:51;;;;;;;11.63;5.90;;;15.10;99.90;;;;;;4994401;28;20026;-76
2022/10/16 02:03:19;;;;;;;13.05;5.55;;;15.10;99.90;;;;;;4994193;28;20419;-76
2022/10/16 02:05:50;;;;;;;11.73;5.57;;;15.10;99.90;;;;;;4994093;28;20030;-76
2022/10/16 02:08:17;;;;;;;11.55;4.93;;;15.10;99.90;;;;;;4987307;28;20048;-76
2022/10/16 02:10:43;;;;;;;11.60;5.70;;;15.10;99.90;;;;;;4992274;28;20026;-77
2022/10/16 02:13:15;;;;;;;7.88;4.90;;;15.10;99.90;;;;;;4993481;28;20041;-76
2022/10/16 02:15:41;;;;;;;9.65;5.20;;;15.10;99.90;;;;;;4992872;28;20039;-75
2022/10/16 02:18:10;;;;;;;12.48;5.57;;;15.10;99.90;;;;;;4991537;28;20046;-75
2022/10/16 02:20:52;;;;;;;8.90;5.20;;;15.00;99.90;;;;;;4986372;28;20051;-76
2022/10/16 02:23:42;;;;;;;9.80;5.30;;;15.00;99.90;;;;;;4993692;28;20043;-76
2022/10/16 02:26:13;;;;;;;10.30;4.57;;;15.00;99.90;;;;;;4992611;28;20084;-76
2022/10/16 02:28:41;;;;;;;;;;;15.00;99.90;;;;;;4993134;28;20042;-76
2022/10/16 02:31:11;;;;;;;9.20;4.57;;;15.00;99.90;;;;;;4993044;28;19913;-76
2022/10/16 02:33:40;;;;;;;13.60;5.57;;;15.00;99.90;;;;;;4994389;28;20042;-75
2022/10/16 02:36:07;;;;;;;8.77;5.18;;;15.00;99.90;;;;;;4992995;28;20568;-75
2022/10/16 02:38:33;;;;;;;9.70;4.90;;;15.00;99.90;;;;;;4992304;28;20038;-74
2022/10/16 02:41:01;;;;;;;10.00;4.88;;;15.00;99.90;;;;;;4993170;28;20026;-75
2022/10/16 02:43:27;;;;;;;8.48;4.53;;;15.00;99.90;;;;;;4993738;28;20041;-75
2022/10/16 02:45:53;;;;;;;7.57;4.93;;;15.00;99.90;;;;;;4993765;28;20030;-78
2022/10/16 02:48:19;;;;;;;7.88;4.68;;;15.10;99.90;;;;;;4993247;28;20043;-76
2022/10/16 02:50:45;;;;;;;14.73;4.45;;;15.10;99.90;;;;;;4992403;28;20054;-76
2022/10/16 02:53:11;;;;;;;8.38;4.57;;;15.10;99.90;;;;;;4993234;28;20053;-77
2022/10/16 02:55:38;;;;;;;9.25;4.50;;;15.10;99.90;;;;;;4993252;28;20030;-75
2022/10/16 02:58:04;;;;;;;8.23;4.82;;;15.10;99.90;;;;;;4992604;28;20376;-77
2022/10/16 03:00:30;;;;;;;10.23;5.03;;;15.10;99.90;;;;;;4992668;28;20142;-76
2022/10/16 03:02:56;;;;;;;11.20;6.68;;;15.10;99.90;;;;;;4993467;28;20030;-78
2022/10/16 03:05:22;;;;;;;11.98;5.55;;;15.10;99.90;;;;;;4993151;28;20030;-76
2022/10/16 03:07:48;;;;;;;16.95;6.57;;;15.10;99.90;;;;;;4994079;28;20065;-75
2022/10/16 03:10:14;;;;;;;11.38;6.70;;;15.10;99.90;;;;;;4991790;28;20102;-76
2022/10/16 03:12:40;;;;;;;14.82;6.00;;;15.10;99.90;;;;;;4993892;28;20372;-74
2022/10/16 03:15:07;;;;;;;12.90;6.40;;;15.10;99.90;;;;;;4993188;28;20034;-75
2022/10/16 03:17:34;;;;;;;13.68;6.60;;;15.10;99.90;;;;;;4993564;28;20057;-75
2022/10/16 03:20:00;;;;;;;15.18;6.25;;;15.10;99.90;;;;;;4990791;28;20030;-77
2022/10/16 03:22:27;;;;;;;11.80;6.15;;;15.00;99.90;;;;;;4992248;28;20046;-76
2022/10/16 03:24:53;;;;;;;12.27;5.90;;;15.00;99.90;;;;;;4993110;28;20034;-75
2022/10/16 03:27:19;;;;;;;11.68;6.10;;;15.00;99.90;;;;;;4990825;28;20054;-75
2022/10/16 03:29:46;;;;;;;9.82;5.88;;;15.10;99.90;;;;;;4990510;28;20034;-75
2022/10/16 03:32:12;;;;;;;14.18;5.90;;;15.10;99.90;;;;;;4992177;28;20034;-75
2022/10/16 03:34:38;;;;;;;12.77;5.68;;;15.10;99.90;;;;;;4993426;28;20034;-77
2022/10/16 03:37:04;;;;;;;10.63;5.55;;;15.10;99.90;;;;;;4992418;28;20038;-75
2022/10/16 03:39:30;;;;;;;10.35;4.75;;;15.10;99.90;;;;;;4990653;28;20042;-75
2022/10/16 03:41:56;;;;;;;12.98;5.45;;;15.10;99.90;;;;;;4992957;28;20035;-77
2022/10/16 03:44:22;;;;;;;7.47;4.47;;;15.10;99.90;;;;;;4992736;28;20041;-75
2022/10/16 03:46:49;;;;;;;8.40;4.90;;;15.10;99.90;;;;;;4992872;28;20054;-75
2022/10/16 03:49:15;;;;;;;8.30;4.18;;;15.00;99.90;;;;;;4990352;28;20083;-74
2022/10/16 03:51:41;;;;;;;7.70;4.32;;;15.00;99.90;;;;;;4992865;28;20042;-75
2022/10/16 03:54:07;;;;;;;7.93;4.43;;;15.00;99.90;;;;;;4990860;28;20051;-75
2022/10/16 03:56:33;;;;;;;8.68;4.80;;;15.00;99.90;;;;;;4993007;28;20042;-76
2022/10/16 03:58:59;;;;;;;8.23;4.57;;;15.00;99.90;;;;;;4990591;28;20034;-76
2022/10/16 04:01:26;;;;;;;11.73;4.80;;;15.10;99.90;;;;;;4986798;28;20400;-76
2022/10/16 04:03:52;;;;;;;11.73;4.88;;;15.10;99.90;;;;;;4992508;28;20038;-77
2022/10/16 04:06:18;;;;;;;8.85;4.35;;;15.10;99.90;;;;;;4991999;28;20574;-75
2022/10/16 04:08:44;;;;;;;7.50;4.30;;;15.00;99.90;;;;;;4991614;28;20038;-75
2022/10/16 04:11:10;;;;;;;8.70;4.18;;;15.10;99.90;;;;;;4992103;28;20379;-76
2022/10/16 04:13:37;;;;;;;10.05;4.43;;;15.10;99.90;;;;;;4992411;28;20030;-75
2022/10/16 04:16:03;;;;;;;8.63;3.75;;;15.00;99.90;;;;;;4992079;28;20394;-77
2022/10/16 04:18:29;;;;;;;9.85;4.50;;;15.00;99.90;;;;;;4991473;28;20047;-75
2022/10/16 04:20:56;;;;;;;6.03;3.80;;;15.00;99.90;;;;;;4992986;28;20046;-75
2022/10/16 04:23:23;;;;;;;8.13;4.10;;;15.00;99.90;;;;;;4992384;28;20045;-76
2022/10/16 04:25:49;;;;;;;5.95;3.92;;;15.00;99.90;;;;;;4993223;28;20034;-75
2022/10/16 04:28:15;;;;;;;7.50;4.28;;;15.00;99.90;;;;;;4990903;28;20049;-75
2022/10/16 04:30:41;;;;;;;7.68;3.60;;;15.00;99.90;;;;;;4994203;28;20042;-74
2022/10/16 04:33:09;;;;;;;6.97;4.05;;;14.90;99.90;;;;;;4995840;28;20073;-75
2022/10/16 04:35:36;;;;;;;12.93;3.70;;;14.90;99.90;;;;;;4996642;28;20031;-75
2022/10/16 04:38:02;;;;;;;7.10;3.75;;;14.90;99.90;;;;;;4994844;28;20045;-76
2022/10/16 04:40:28;;;;;;;10.20;4.03;;;14.90;99.90;;;;;;4995817;28;20042;-76
2022/10/16 04:42:54;;;;;;;5.25;3.35;;;14.90;99.90;;;;;;4996254;28;20034;-74
2022/10/16 04:45:20;;;;;;;11.70;4.13;;;14.90;99.90;;;;;;4995107;28;20456;-75
2022/10/16 04:47:46;;;;;;;7.63;4.72;;;14.90;99.90;;;;;;4995113;28;20043;-75
2022/10/16 04:50:13;;;;;;;7.43;3.63;;;14.90;99.90;;;;;;4994286;28;20050;-75
2022/10/16 04:52:39;;;;;;;6.55;4.15;;;14.90;99.90;;;;;;4995917;28;20034;-75
2022/10/16 04:55:05;;;;;;;7.50;3.67;;;14.90;99.90;;;;;;4995145;28;20375;-75
2022/10/16 04:57:33;;;;;;;6.85;3.83;;;14.90;99.90;;;;;;4985139;28;20061;-76
2022/10/16 04:59:59;;;;;;;7.85;4.10;;;14.90;99.90;;;;;;4994239;28;20042;-76
2022/10/16 05:02:25;;;;;;;9.32;4.03;;;14.90;99.90;;;;;;4995277;28;20046;-75
2022/10/16 05:04:52;;;;;;;10.23;4.03;;;14.80;99.90;;;;;;4995622;28;20038;-76
2022/10/16 05:07:18;;;;;;;6.95;3.67;;;14.80;99.90;;;;;;4994686;28;20046;-74
2022/10/16 05:09:44;;;;;;;7.03;4.20;;;14.80;99.90;;;;;;4976943;28;20050;-74
2022/10/16 05:12:10;;;;;;;8.18;4.47;;;14.80;99.90;;;;;;4993708;28;20042;-74
2022/10/16 05:14:37;;;;;;;10.23;4.25;;;14.80;99.90;;;;;;4995326;28;20041;-74
2022/10/16 05:17:03;;;;;;;10.65;4.43;;;14.90;99.90;;;;;;4994792;28;20034;-75
2022/10/16 05:19:29;;;;;;;9.25;4.18;;;14.80;99.90;;;;;;4992912;28;20035;-74
2022/10/16 05:21:55;;;;;;;6.70;4.00;;;14.90;99.90;;;;;;4995318;28;20460;-75
2022/10/16 05:24:22;;;;;;;9.57;4.35;;;14.80;99.90;;;;;;4994373;28;20037;-75
2022/10/16 05:26:48;;;;;;;7.05;3.78;;;14.90;99.90;;;;;;4993979;28;20049;-77
2022/10/16 05:29:14;;;;;;;9.45;4.47;;;14.90;99.90;;;;;;4993131;28;20045;-76
2022/10/16 05:31:40;;;;;;;7.90;3.90;;;14.90;99.90;;;;;;4994994;28;20030;-74
2022/10/16 05:34:06;;;;;;;9.50;4.00;;;14.90;99.90;;;;;;4995817;28;20037;-75
2022/10/16 05:36:32;;;;;;;7.07;3.45;;;14.90;99.90;;;;;;4995965;28;20042;-75
2022/10/16 05:38:59;;;;;;;10.02;4.80;;;14.90;99.90;;;;;;5001169;28;20038;-77
2022/10/16 05:41:26;;;;;;;7.18;3.67;;;14.90;99.90;;;;;;5019076;28;20023;-77
2022/10/16 05:43:52;;;;;;;7.35;3.53;;;14.90;99.90;;;;;;5018569;28;20042;-78
2022/10/16 05:46:19;;;;;;;7.60;4.60;;;14.90;99.90;;;;;;4999810;28;20587;-76
2022/10/16 05:48:45;;;;;;;6.97;4.13;;;14.90;99.90;;;;;;4984650;28;20039;-77
2022/10/16 05:51:13;;;;;;;6.45;3.78;;;14.90;99.90;;;;;;4984276;28;20182;-75
2022/10/16 05:53:40;;;;;;;7.15;3.78;;;14.80;99.90;;;;;;4986555;28;20050;-75
2022/10/16 05:56:09;;;;;;;9.35;4.55;;;14.80;99.90;;;;;;4993805;28;20407;-74
2022/10/16 05:58:37;;;;;;;7.78;4.43;;;14.80;99.90;;;;;;4993840;28;20050;-76
2022/10/16 06:01:14;;;;;;;7.28;4.50;;;14.80;99.90;;;;;;4992548;28;20039;-75
2022/10/16 06:03:41;;;;;;;15.50;5.10;;;14.90;99.90;;;;;;4993448;28;20041;-74
2022/10/16 06:06:27;;;;;;;8.18;4.97;;;14.90;99.90;;;;;;4993683;28;20034;-76
2022/10/16 06:08:54;;;;;;;9.77;5.45;;;14.90;99.90;;;;;;4994212;28;20396;-75
2022/10/16 06:11:27;;;;;;;16.88;5.90;;;14.90;99.90;;;;;;4993636;28;20114;-76
2022/10/16 06:13:56;;;;;;;10.45;5.47;;;14.90;99.90;;;;;;4993252;28;20049;-76
2022/10/16 06:16:23;;;;;;;9.27;5.35;;;14.90;99.90;;;;;;4993831;28;20033;-76
2022/10/16 06:18:51;;;;;;;11.77;5.45;;;14.90;99.90;;;;;;4994322;28;20042;-75
2022/10/16 06:21:21;;;;;;;11.18;5.40;;;14.90;99.90;;;;;;4993547;28;20041;-75
2022/10/16 06:23:48;;;;;;;13.45;6.45;;;15.00;99.90;;;;;;4992697;28;20452;-75
2022/10/16 06:26:16;;;;;;;12.57;6.03;;;15.00;99.90;;;;;;4993441;28;20380;-75
2022/10/16 06:28:43;;;;;;;13.00;5.65;;;15.00;99.90;;;;;;4993237;28;20050;-73
2022/10/16 06:31:10;;;;;;;11.40;6.10;;;15.00;99.90;;;;;;4992763;28;20042;-75
2022/10/16 06:33:38;;;;;;;11.32;5.97;;;15.00;99.90;;;;;;4989824;28;20057;-74
2022/10/16 06:36:15;;;;;;;15.10;6.18;;;15.00;99.90;;;;;;4993214;28;20042;-77
2022/10/16 06:38:42;;;;;;;12.30;5.90;;;15.00;99.90;;;;;;4993716;28;20038;-74
2022/10/16 06:41:12;;;;;;;12.30;5.53;;;15.10;99.90;;;;;;4993134;28;20045;-74
2022/10/16 06:43:38;;;;;;;9.63;5.77;;;15.10;99.90;;;;;;4990957;28;20046;-73
2022/10/16 06:46:09;;;;;;;10.48;5.57;;;15.20;99.90;;;;;;4991707;28;20399;-77
2022/10/16 06:48:36;;;;;;;;;;;15.10;99.90;;;;;;4993967;28;20034;-73
2022/10/16 06:51:08;;;;;;;11.35;5.82;;;15.10;99.90;;;;;;4992971;28;19910;-77
2022/10/16 06:53:36;;;;;;;10.82;5.50;;;15.10;99.90;;;;;;4992232;28;20034;-75
2022/10/16 06:56:11;;;;;;;14.05;5.78;;;15.20;99.90;;;;;;4992287;28;20448;-77
2022/10/16 06:58:37;;;;;;;11.32;6.03;;;15.20;99.90;;;;;;4993133;28;20034;-75
2022/10/16 07:01:04;;;;;;;13.48;5.28;;;15.20;99.90;;;;;;4986217;28;20045;-77
2022/10/16 07:03:31;;;;;;;14.55;4.65;;;15.20;99.90;;;;;;4988572;28;20043;-73
2022/10/16 07:06:01;;;;;;;8.45;4.75;;;15.20;99.90;;;;;;4991393;28;20038;-72
2022/10/16 07:08:27;;;;;;;14.63;5.15;;;15.20;99.90;;;;;;4992736;28;20064;-73
2022/10/16 07:11:05;;;;;;;11.30;5.00;;;15.20;99.90;;;;;;4993005;28;20030;-74
2022/10/16 07:13:38;;;;;;;10.73;6.05;;;15.20;99.90;;;;;;4991754;28;20030;-73
2022/10/16 07:16:06;;;;;;;8.52;4.97;;;15.30;99.90;;;;;;4992683;28;20388;-77
2022/10/16 07:18:33;;;;;;;7.50;4.40;;;15.30;99.90;;;;;;4993264;28;20045;-74
2022/10/16 07:21:20;;;;;;;8.40;3.95;;;15.40;99.90;;;;;;4993030;28;20038;-74
2022/10/16 07:23:50;;;;;;;7.28;4.80;;;15.40;99.90;;;;;;4991568;28;20491;-74
2022/10/16 07:26:17;;;;;;;11.65;7.72;;;15.50;99.90;;;;;;4992317;28;20494;-74
2022/10/16 07:28:44;;;;;;;9.80;8.18;;;15.60;99.90;;;;;;4991519;28;20037;-74
2022/10/16 07:31:13;;;;;;;9.18;6.50;;;15.70;99.90;;;;;;4991998;28;20045;-73
2022/10/16 07:33:42;;;;;;;9.82;6.43;;;15.80;99.90;;;;;;4990036;28;20050;-73
2022/10/16 07:36:09;;;;;;;8.93;5.20;;;15.90;99.90;;;;;;4992405;28;20068;-76
2022/10/16 07:38:35;;;;;;;8.18;5.07;;;15.90;99.90;;;;;;4993117;28;20030;-75
2022/10/16 07:41:04;;;;;;;9.15;4.78;;;15.80;99.90;;;;;;4992723;28;20384;-75
2022/10/16 07:43:31;;;;;;;5.25;2.85;;;15.80;99.90;;;;;;5005246;28;20038;-74
2022/10/16 07:45:58;;;;;;;8.90;3.88;;;15.70;99.90;;;;;;5007008;28;20038;-75
2022/10/16 07:48:27;;;;;;;5.38;3.45;;;15.70;99.90;;;;;;4991020;28;20034;-75
2022/10/16 07:50:58;;;;;;;9.25;4.10;;;15.70;99.90;;;;;;4987173;28;20046;-75
2022/10/16 07:53:24;;;;;;;8.98;4.45;;;15.60;99.90;;;;;;4986737;28;20041;-75
2022/10/16 07:55:50;;;;;;;7.65;3.92;;;15.70;99.90;;;;;;4986492;28;20039;-74
2022/10/16 07:58:16;;;;;;;8.48;3.60;;;15.70;99.90;;;;;;4991942;28;20038;-75
2022/10/16 08:00:42;;;;;;;7.28;3.47;;;15.70;99.90;;;;;;4990853;28;20046;-73
2022/10/16 08:03:09;;;;;;;8.23;3.45;;;15.80;99.90;;;;;;4989431;28;20050;-77
2022/10/16 08:05:35;;;;;;;8.68;3.97;;;15.80;99.90;;;;;;4992278;28;20448;-75
2022/10/16 08:08:02;;;;;;;7.10;3.15;;;15.80;99.90;;;;;;4992127;28;20053;-75
2022/10/16 08:10:29;;;;;;;7.43;3.22;;;15.70;99.90;;;;;;4991674;28;20031;-76
2022/10/16 08:12:55;;;;;;;5.10;3.38;;;15.70;99.90;;;;;;4991082;28;20034;-74
2022/10/16 08:15:22;;;;;;;8.57;3.10;;;15.70;99.90;;;;;;4991793;28;20034;-76
2022/10/16 08:17:55;;;;;;;6.40;3.13;;;15.70;99.90;;;;;;4991901;28;20038;-75
2022/10/16 08:20:21;;;;;;;6.60;3.25;;;15.70;99.90;;;;;;4990440;28;20037;-75
2022/10/16 08:22:48;;;;;;;5.53;3.13;;;15.60;99.90;;;;;;4988749;28;20049;-75
2022/10/16 08:25:14;;;;;;;8.98;3.83;;;15.70;99.90;;;;;;4992016;28;20459;-75
2022/10/16 08:27:40;;;;;;;5.55;3.13;;;15.60;99.90;;;;;;4990901;28;20049;-75
2022/10/16 08:30:07;;;;;;;11.15;3.83;;;15.60;99.90;;;;;;4974715;28;20039;-74
2022/10/16 08:32:33;;;;;;;4.55;2.92;;;15.60;99.90;;;;;;4989151;28;20047;-78
2022/10/16 08:34:59;;;;;;;7.68;3.65;;;15.70;99.90;;;;;;4991690;28;20046;-75
2022/10/16 08:37:30;;;;;;;6.85;4.25;;;15.60;99.90;;;;;;4984118;28;20122;-74
2022/10/16 08:39:56;;;;;;;6.45;4.18;;;15.60;99.90;;;;;;4990619;28;20042;-75
2022/10/16 08:42:32;;;;;;;7.93;5.05;;;15.60;99.90;;;;;;4989538;28;20444;-76
2022/10/16 08:45:07;;;;;;;8.05;4.18;;;15.70;99.90;;;;;;4991786;28;20030;-76
2022/10/16 08:47:49;;;;;;;6.47;3.90;;;15.70;99.90;;;;;;4991751;28;20031;-75
2022/10/16 08:50:27;;;;;;;9.02;5.03;;;15.60;99.90;;;;;;4991079;28;20051;-76
2022/10/16 08:52:54;;;;;;;10.50;4.95;;;15.60;99.90;;;;;;4990657;28;20042;-76
2022/10/16 08:55:42;;;;;;;10.23;4.65;;;15.50;99.90;;;;;;4990930;28;20026;-75
2022/10/16 08:58:14;;;;;;;5.45;2.78;;;15.50;99.90;;;;;;4991369;28;20039;-79
2022/10/16 09:00:44;;;;;;;4.90;2.17;;;15.40;99.90;;;;;;4991936;28;20034;-77
2022/10/16 09:03:37;;;;;;;3.10;1.55;;;15.30;99.90;;;;;;4990443;28;20035;-77
2022/10/16 09:06:17;;;;;;;4.13;1.33;;;15.30;99.90;;;;;;4982366;28;20364;-75
2022/10/16 09:08:52;;;;;;;3.42;2.15;;;15.20;99.90;;;;;;4992040;28;20057;-76
2022/10/16 09:11:41;;;;;;;5.63;2.35;;;15.30;99.90;;;;;;4990876;28;20041;-75
2022/10/16 09:14:29;;;;;;;5.57;2.85;;;15.50;99.90;;;;;;4992153;28;20031;-75
2022/10/16 09:17:03;;;;;;;10.00;3.25;;;15.70;99.90;;;;;;4984915;28;20053;-76
2022/10/16 09:19:45;;;;;;;6.80;3.53;;;15.70;99.90;;;;;;4983720;28;20042;-78
2022/10/16 09:22:18;;;;;;;6.70;4.10;;;15.80;99.90;;;;;;4972804;28;20038;-76
2022/10/16 09:24:44;;;;;;;6.43;4.10;;;15.90;99.90;;;;;;4995521;28;20033;-74
2022/10/16 09:27:15;;;;;;;7.80;4.38;;;16.00;99.90;;;;;;4995041;28;20061;-77
2022/10/16 09:29:41;;;;;;;8.25;4.38;;;16.20;99.90;;;;;;4994928;28;20046;-75
2022/10/16 09:32:17;;;;;;;10.15;4.30;;;16.40;99.90;;;;;;4993945;28;20496;-74
2022/10/16 09:34:50;;;;;;;8.80;4.75;;;16.60;99.90;;;;;;4994117;28;20042;-75
2022/10/16 09:37:19;;;;;;;7.90;3.90;;;16.80;99.90;;;;;;4993806;28;20038;-75
2022/10/16 09:39:54;;;;;;;6.15;3.53;;;17.00;99.90;;;;;;4994866;28;20042;-76
2022/10/16 09:42:36;;;;;;;7.80;4.18;;;17.00;99.90;;;;;;4989418;28;20034;-77
2022/10/16 09:45:03;;;;;;;5.80;3.53;;;16.90;99.90;;;;;;4994591;28;20476;-74
2022/10/16 09:47:31;;;;;;;5.18;3.50;;;17.10;99.90;;;;;;4992603;28;20118;-75
2022/10/16 09:50:01;;;;;;;4.00;2.72;;;17.20;99.90;;;;;;4994816;28;20050;-75
2022/10/16 09:52:29;;;;;;;7.00;3.47;;;17.10;99.90;;;;;;4992806;28;20053;-76
2022/10/16 09:55:13;;;;;;;5.15;2.90;;;17.00;99.90;;;;;;4995542;28;20034;-76
2022/10/16 09:57:52;;;;;;;5.75;3.50;;;17.00;99.90;;;;;;5015188;28;20038;-74
2022/10/16 10:00:21;;;;;;;6.40;3.22;;;17.00;99.90;;;;;;5011804;28;20051;-75
2022/10/16 10:02:48;;;;;;;6.43;3.40;;;17.00;99.90;;;;;;4992838;28;20034;-75
2022/10/16 10:05:26;;;;;;;4.82;2.92;;;17.20;99.90;;;;;;4994153;28;20037;-74
2022/10/16 10:08:02;;;;;;;7.68;3.33;;;17.10;99.90;;;;;;4993696;28;20046;-75
2022/10/16 10:10:31;;;;;;;7.32;3.05;;;17.30;99.90;;;;;;4994276;28;20038;-76
2022/10/16 10:12:58;;;;;;;5.20;2.63;;;17.30;99.90;;;;;;4993374;28;20045;-75
2022/10/16 10:15:33;;;;;;;6.00;2.85;;;17.30;99.90;;;;;;4993696;28;20050;-76
2022/10/16 10:17:59;;;;;;;5.80;3.17;;;17.40;99.90;;;;;;4989456;28;20037;-77
2022/10/16 10:20:34;;;;;;;6.97;2.80;;;17.60;99.90;;;;;;4993990;28;20042;-77
2022/10/16 10:23:01;;;;;;;3.97;2.33;;;17.70;99.90;;;;;;4993280;28;20057;-75
2022/10/16 10:26:17;;;;;;;6.35;2.72;;;17.60;99.90;;;;;;4993953;28;20030;-75
2022/10/16 10:29:03;;;;;;;4.22;2.50;;;17.50;99.90;;;;;;4990375;28;20378;-75
2022/10/16 10:31:48;;;;;;;6.72;2.38;;;17.40;99.90;;;;;;4993726;28;20046;-76
2022/10/16 10:34:17;;;;;;;2.60;1.77;;;17.40;99.90;;;;;;4992308;28;20041;-74
2022/10/16 10:36:49;;;;;;;5.90;3.08;;;17.60;99.90;;;;;;4993940;28;20045;-73
2022/10/16 10:39:38;;;;;;;3.90;2.25;;;17.50;99.90;;;;;;4993653;28;20041;-74
2022/10/16 10:42:23;;;;;;;5.65;2.35;;;17.40;99.90;;;;;;4994014;28;20034;-77
2022/10/16 10:45:08;;;;;;;7.00;2.28;;;17.40;99.90;;;;;;4993981;28;20045;-75
2022/10/16 10:48:12;;;;;;;7.20;2.72;;;17.60;99.90;;;;;;4993656;28;20042;-73
2022/10/16 10:50:44;;;;;;;8.38;3.15;;;17.60;99.90;;;;;;4990286;28;20053;-73
2022/10/16 10:53:36;;;;;;;4.18;2.45;;;17.80;99.90;;;;;;4990313;28;20046;-74
2022/10/16 10:56:20;;;;;;;4.28;2.50;;;18.00;99.90;;;;;;4993243;28;20460;-73
2022/10/16 10:58:55;;;;;;;5.60;2.45;;;18.00;99.90;;;;;;4993652;28;20042;-73
2022/10/16 11:02:06;;;;;;;3.33;2.30;;;18.00;99.90;;;;;;4992926;28;20049;-73
2022/10/16 11:05:12;;;;;;;3.63;1.85;;;18.20;99.90;;;;;;4985648;28;20050;-72
2022/10/16 11:07:50;;;;;;;2.30;1.70;;;18.40;99.90;;;;;;4993835;28;20022;-73
2022/10/16 11:10:22;;;;;;;5.72;2.90;;;18.20;99.90;;;;;;4992621;28;20050;-72
2022/10/16 11:12:56;;;;;;;2.75;1.38;;;17.90;99.90;;;;;;4992071;28;20034;-72
2022/10/16 11:15:39;;;;;;;2.97;1.70;;;17.90;99.90;;;;;;4992993;28;20030;-73
2022/10/16 11:18:22;;;;;;;4.70;1.88;;;18.10;99.90;;;;;;4993297;28;20035;-72
2022/10/16 11:21:00;;;;;;;3.83;1.77;;;18.20;99.90;;;;;;4993202;28;20053;-72
2022/10/16 11:23:54;;;;;;;2.80;1.23;;;18.20;99.90;;;;;;4991151;28;20038;-72
2022/10/16 11:26:25;;;;;;;2.90;1.38;;;18.00;99.90;;;;;;4984431;28;20403;-72
2022/10/16 11:28:55;;;;;;;4.72;1.55;;;18.00;99.90;;;;;;4993228;28;20061;-73
2022/10/16 11:31:41;;;;;;;2.88;1.27;;;18.20;99.90;;;;;;4986090;28;20045;-72
2022/10/16 11:34:31;;;;;;;4.88;1.63;;;18.40;99.90;;;;;;4992041;28;20043;-73
2022/10/16 11:37:08;;;;;;;1.77;1.23;;;18.60;99.90;;;;;;4993341;28;20026;-73
2022/10/16 11:39:35;;;;;;;3.22;1.20;;;18.70;99.90;;;;;;4992379;28;20043;-71
2022/10/16 11:42:38;;;;;;;3.70;1.52;;;18.80;99.90;;;;;;4992142;28;20038;-72
2022/10/16 11:45:31;;;;;;;6.38;1.30;;;18.60;99.90;;;;;;4993215;28;20034;-73
2022/10/16 11:48:20;;;;;;;5.35;1.92;;;18.70;99.90;;;;;;4991834;28;20042;-72
2022/10/16 11:50:52;;;;;;;3.30;1.65;;;18.50;99.90;;;;;;4992391;28;20058;-72
2022/10/16 11:53:34;;;;;;;7.30;1.40;;;18.50;99.90;;;;;;4990716;28;20030;-73
2022/10/16 11:56:00;;;;;;;2.50;1.70;;;18.50;99.90;;;;;;4992821;28;20395;-73
2022/10/16 11:59:02;;;;;;;2.40;1.50;;;18.60;99.90;;;;;;4992069;28;20045;-74
2022/10/16 12:01:39;;;;;;;3.17;1.67;;;18.70;99.90;;;;;;4990779;28;20527;-74
2022/10/16 12:04:17;;;;;;;3.40;1.50;;;18.70;99.90;;;;;;4985129;28;20041;-73
2022/10/16 12:06:49;;;;;;;2.80;1.55;;;19.00;99.90;;;;;;4992943;28;20031;-72
2022/10/16 12:09:39;;;;;;;3.75;1.58;;;18.90;99.90;;;;;;4990173;28;20053;-73
2022/10/16 12:12:25;;;;;;;4.43;1.48;;;19.00;99.90;;;;;;4989275;28;20057;-71
2022/10/16 12:15:21;;;;;;;2.63;1.13;;;19.00;99.90;;;;;;4984677;28;20033;-72
2022/10/16 12:17:47;;;;;;;3.92;1.60;;;19.00;99.90;;;;;;4973721;28;20491;-72
2022/10/16 12:20:20;;;;;;;2.13;1.42;;;19.00;99.90;;;;;;4990838;28;20034;-75
2022/10/16 12:23:06;;;;;;;2.58;1.45;;;19.00;99.90;;;;;;4992371;28;20041;-70
2022/10/16 12:25:46;;;;;;;2.22;1.33;;;19.10;99.90;;;;;;4990939;28;20030;-71
2022/10/16 12:28:14;;;;;;;4.13;1.63;;;19.20;99.90;;;;;;4992227;28;20518;-71
2022/10/16 12:30:42;;;;;;;2.17;1.38;;;19.30;99.90;;;;;;4987138;28;20054;-75
2022/10/16 12:33:30;;;;;;;4.50;1.45;;;19.30;99.90;;;;;;4985932;28;20038;-73
2022/10/16 12:35:59;;;;;;;2.67;1.48;;;19.40;99.90;;;;;;4974755;28;20042;-72
2022/10/16 12:38:33;;;;;;;2.78;1.17;;;19.50;99.90;;;;;;4991810;28;20486;-72
2022/10/16 12:41:02;;;;;;;3.05;1.58;;;19.50;99.90;;;;;;4992062;28;20392;-72
2022/10/16 12:43:43;;;;;;;3.08;1.08;;;19.60;99.90;;;;;;4969232;28;20053;-72
2022/10/16 12:46:09;;;;;;;4.88;1.33;;;19.60;99.90;;;;;;4985376;28;20049;-72
2022/10/16 12:48:37;;;;;;;4.85;1.50;;;19.70;99.90;;;;;;4991263;28;20034;-72
2022/10/16 12:51:29;;;;;;;4.60;1.40;;;19.80;99.90;;;;;;4992235;28;20491;-72
2022/10/16 12:54:04;;;;;;;4.97;1.95;;;20.00;99.90;;;;;;4989772;28;20487;-73
2022/10/16 12:56:58;;;;;;;3.08;1.55;;;20.10;99.90;;;;;;4993899;28;20035;-73
2022/10/16 12:59:33;;;;;;;2.47;1.60;;;20.20;99.90;;;;;;4995403;28;20045;-74
2022/10/16 13:02:37;;;;;;;4.30;1.48;;;20.40;99.90;;;;;;4995805;28;20034;-73
2022/10/16 13:05:29;;;;;;;2.38;1.48;;;20.30;99.90;;;;;;4994550;28;20031;-73
2022/10/16 13:08:02;;;;;;;2.15;1.17;;;20.30;99.90;;;;;;4959263;28;20038;-73
2022/10/16 13:11:05;;;;;;;5.03;1.90;;;20.30;99.90;;;;;;4995023;28;20050;-73